createdAt,value
2022-09-02T00:01:00.662Z,99809.06
2022-09-02T00:03:31.595Z,99804.25
2022-09-02T00:05:59.239Z,99804.72
2022-09-02T00:08:27.041Z,99804.31
2022-09-02T00:10:54.856Z,99804.25
2022-09-02T00:13:22.446Z,99795.63
2022-09-02T00:15:50.609Z,99795.28
2022-09-02T00:18:18.583Z,99788.44
2022-09-02T00:20:48.972Z,99786.19
2022-09-02T00:23:16.775Z,99789.25
2022-09-02T00:25:45.326Z,99784.28
2022-09-02T00:28:14.926Z,99792.56
2022-09-02T00:30:43.604Z,99791.81
2022-09-02T00:33:12.292Z,99785.06
2022-09-02T00:35:40.124Z,99782.38
2022-09-02T00:38:12.268Z,99788.06
2022-09-02T00:40:45.134Z,99778.84
2022-09-02T00:43:12.914Z,99781.03
2022-09-02T00:45:40.767Z,99771.91
2022-09-02T00:48:08.255Z,99773.09
2022-09-02T00:50:39.352Z,99770.53
2022-09-02T00:53:10.094Z,99774.94
2022-09-02T00:55:45.173Z,99773.97
2022-09-02T00:58:29.427Z,99776.75
2022-09-02T01:01:01.508Z,99770.66
2022-09-02T01:03:31.597Z,99770.75
2022-09-02T01:05:59.860Z,99776.75
2022-09-02T01:08:32.797Z,99771.59
2022-09-02T01:11:01.729Z,99770.00
2022-09-02T01:13:31.431Z,99765.41
2022-09-02T01:16:18.395Z,99764.66
2022-09-02T01:18:50.386Z,99769.62
2022-09-02T01:21:18.731Z,99776.72
2022-09-02T01:23:47.441Z,99769.62
2022-09-02T01:26:15.579Z,99768.81
2022-09-02T01:28:46.589Z,99767.81
2022-09-02T01:31:14.219Z,99770.06
2022-09-02T01:33:42.357Z,99772.97
2022-09-02T01:36:13.566Z,99765.56
2022-09-02T01:38:41.036Z,99767.66
2022-09-02T01:41:09.072Z,99762.53
2022-09-02T01:43:40.500Z,99771.03
2022-09-02T01:46:09.054Z,99763.34
2022-09-02T01:48:37.040Z,99760.97
2022-09-02T01:51:05.096Z,99761.00
2022-09-02T01:53:33.725Z,99763.09
2022-09-02T01:56:01.353Z,99766.72
2022-09-02T01:58:29.158Z,99761.84
2022-09-02T02:00:57.272Z,99764.34
2022-09-02T02:03:25.410Z,99755.28
2022-09-02T02:05:53.737Z,99749.91
2022-09-02T02:08:22.085Z,99749.91
2022-09-02T02:10:50.212Z,99752.41
2022-09-02T02:13:17.908Z,99752.13
2022-09-02T02:15:45.657Z,99747.38
2022-09-02T02:18:18.912Z,99746.97
2022-09-02T02:20:46.400Z,99746.47
2022-09-02T02:23:14.444Z,99746.12
2022-09-02T02:25:47.253Z,99754.03
2022-09-02T02:28:15.031Z,99750.56
2022-09-02T02:30:43.112Z,99754.09
2022-09-02T02:33:10.988Z,99750.34
2022-09-02T02:35:38.737Z,99750.72
2022-09-02T02:38:06.262Z,99750.91
2022-09-02T02:40:33.822Z,99748.41
2022-09-02T02:43:01.641Z,99749.28
2022-09-02T02:45:32.530Z,99747.41
2022-09-02T02:48:00.111Z,99745.12
2022-09-02T02:50:27.892Z,99743.22
2022-09-02T02:52:56.494Z,99748.84
2022-09-02T02:55:25.062Z,99747.44
2022-09-02T02:57:53.429Z,99747.22
2022-09-02T03:00:25.233Z,99749.25
2022-09-02T03:02:57.782Z,99746.59
2022-09-02T03:05:31.531Z,99737.72
2022-09-02T03:08:02.871Z,99732.84
2022-09-02T03:10:33.435Z,99745.12
2022-09-02T03:13:02.264Z,99746.34
2022-09-02T03:15:31.054Z,99746.56
2022-09-02T03:17:58.624Z,99740.06
2022-09-02T03:20:26.477Z,99743.97
2022-09-02T03:22:56.561Z,99730.66
2022-09-02T03:25:26.323Z,99733.19
2022-09-02T03:27:55.086Z,99739.91
2022-09-02T03:30:26.490Z,99739.72
2022-09-02T03:33:00.456Z,99742.09
2022-09-02T03:35:33.910Z,99741.91
2022-09-02T03:38:01.828Z,99744.97
2022-09-02T03:40:29.990Z,99736.09
2022-09-02T03:43:00.098Z,99740.63
2022-09-02T03:45:33.197Z,99733.78
2022-09-02T03:48:03.164Z,99739.06
2022-09-02T03:50:40.093Z,99734.81
2022-09-02T03:53:27.517Z,99735.50
2022-09-02T03:56:22.868Z,99735.13
2022-09-02T03:58:52.624Z,99737.16
2022-09-02T04:01:23.728Z,99740.72
2022-09-02T04:03:54.415Z,99735.16
2022-09-02T04:06:26.235Z,99729.22
2022-09-02T04:09:01.309Z,99739.91
2022-09-02T04:11:33.541Z,99733.00
2022-09-02T04:14:01.422Z,99741.50
2022-09-02T04:16:36.255Z,99741.72
2022-09-02T04:19:06.122Z,99740.66
2022-09-02T04:21:36.830Z,99743.22
2022-09-02T04:24:10.621Z,99743.66
2022-09-02T04:26:45.239Z,99740.38
2022-09-02T04:29:14.476Z,99740.72
2022-09-02T04:31:43.118Z,99736.59
2022-09-02T04:34:11.092Z,99744.66
2022-09-02T04:36:40.918Z,99746.06
2022-09-02T04:39:09.491Z,99753.59
2022-09-02T04:41:38.119Z,99749.03
2022-09-02T04:44:09.885Z,99746.47
2022-09-02T04:46:37.795Z,99750.13
2022-09-02T04:49:06.217Z,99755.75
2022-09-02T04:51:34.365Z,99751.97
2022-09-02T04:54:02.480Z,99754.44
2022-09-02T04:56:34.200Z,99753.66
2022-09-02T04:59:10.290Z,99759.09
2022-09-02T05:01:38.832Z,99757.50
2022-09-02T05:04:10.347Z,99765.47
2022-09-02T05:06:44.045Z,99757.19
2022-09-02T05:09:15.605Z,99761.34
2022-09-02T05:11:44.263Z,99757.22
2022-09-02T05:14:13.407Z,99766.47
2022-09-02T05:16:42.918Z,99763.97
2022-09-02T05:19:14.715Z,99758.44
2022-09-02T05:21:44.408Z,99755.03
2022-09-02T05:24:13.448Z,99764.66
2022-09-02T05:26:45.601Z,99757.75
2022-09-02T05:29:14.178Z,99762.81
2022-09-02T05:31:42.848Z,99764.78
2022-09-02T05:34:12.130Z,99758.63
2022-09-02T05:36:43.419Z,99764.97
2022-09-02T05:39:11.646Z,99765.84
2022-09-02T05:41:39.696Z,99765.06
2022-09-02T05:44:13.483Z,99757.63
2022-09-02T05:46:43.543Z,99760.53
2022-09-02T05:49:18.001Z,99754.97
2022-09-02T05:51:55.094Z,99757.31
2022-09-02T05:54:28.804Z,99763.03
2022-09-02T05:57:09.332Z,99760.56
2022-09-02T05:59:42.514Z,99754.38
2022-09-02T06:02:12.314Z,99761.12
2022-09-02T06:04:42.715Z,99758.66
2022-09-02T06:07:13.887Z,99757.84
2022-09-02T06:09:45.021Z,99766.19
2022-09-02T06:12:14.553Z,99764.47
2022-09-02T06:14:49.076Z,99765.37
2022-09-02T06:17:20.582Z,99767.25
2022-09-02T06:19:48.471Z,99760.41
2022-09-02T06:22:21.677Z,99758.31
2022-09-02T06:24:52.550Z,99761.62
2022-09-02T06:27:32.512Z,99763.97
2022-09-02T06:30:01.071Z,99769.12
2022-09-02T06:32:29.688Z,99772.87
2022-09-02T06:34:58.804Z,99779.53
2022-09-02T06:37:29.499Z,99777.28
2022-09-02T06:40:06.540Z,99777.88
2022-09-02T06:42:35.109Z,99781.91
2022-09-02T06:45:08.951Z,99775.56
2022-09-02T06:47:37.360Z,99773.75
2022-09-02T06:50:05.162Z,99781.63
2022-09-02T06:52:32.810Z,99785.84
2022-09-02T06:55:10.674Z,99779.81
2022-09-02T06:57:41.262Z,99786.19
2022-09-02T07:00:16.840Z,99772.66
2022-09-02T07:03:04.331Z,99777.50
2022-09-02T07:05:44.371Z,99776.66
2022-09-02T07:08:17.564Z,99765.84
2022-09-02T07:10:45.685Z,99771.69
2022-09-02T07:13:22.067Z,99770.66
2022-09-02T07:15:57.672Z,99777.06
2022-09-02T07:18:31.141Z,99770.03
2022-09-02T07:21:01.188Z,99767.94
2022-09-02T07:23:29.786Z,99765.66
2022-09-02T07:26:00.966Z,99768.53
2022-09-02T07:28:28.943Z,99779.34
2022-09-02T07:31:01.067Z,99769.78
2022-09-02T07:33:32.559Z,99779.56
2022-09-02T07:36:00.213Z,99769.41
2022-09-02T07:38:33.260Z,99776.88
2022-09-02T07:41:18.459Z,99773.75
2022-09-02T07:43:51.140Z,99781.03
2022-09-02T07:46:20.350Z,99775.81
2022-09-02T07:48:50.825Z,99774.38
2022-09-02T07:51:35.429Z,99773.13
2022-09-02T07:54:17.273Z,99767.94
2022-09-02T07:56:45.631Z,99773.34
2022-09-02T07:59:13.148Z,99776.44
2022-09-02T08:04:28.560Z,99774.78
2022-09-02T08:06:59.790Z,99777.44
2022-09-02T08:09:29.184Z,99779.37
2022-09-02T08:12:04.925Z,99776.25
2022-09-02T08:14:32.663Z,99775.44
2022-09-02T08:17:08.506Z,99782.09
2022-09-02T08:19:36.344Z,99773.72
2022-09-02T08:22:06.865Z,99780.59
2022-09-02T08:24:34.310Z,99776.00
2022-09-02T08:27:02.141Z,99771.22
2022-09-02T08:29:29.771Z,99768.94
2022-09-02T08:31:57.461Z,99770.41
2022-09-02T08:34:30.436Z,99777.47
2022-09-02T08:37:03.735Z,99767.88
2022-09-02T08:39:40.179Z,99763.66
2022-09-02T08:42:25.008Z,99767.22
2022-09-02T08:44:58.442Z,99766.19
2022-09-02T08:47:38.536Z,99766.56
2022-09-02T08:50:14.057Z,99759.84
2022-09-02T08:52:59.563Z,99762.97
2022-09-02T08:55:47.852Z,99760.31
2022-09-02T08:58:23.608Z,99760.44
2022-09-02T09:01:11.772Z,99757.16
2022-09-02T09:04:11.499Z,99759.94
2022-09-02T09:06:55.060Z,99760.66
2022-09-02T09:09:37.911Z,99763.09
2022-09-02T09:12:11.958Z,99762.09
2022-09-02T09:14:51.545Z,99748.53
2022-09-02T09:17:44.722Z,99757.34
2022-09-02T09:20:32.192Z,99756.38
2022-09-02T09:23:07.097Z,99749.03
2022-09-02T09:25:35.009Z,99746.47
2022-09-02T09:28:07.372Z,99746.41
2022-09-02T09:30:45.079Z,99745.41
2022-09-02T09:33:18.202Z,99747.44
2022-09-02T09:36:05.581Z,99754.47
2022-09-02T09:38:41.676Z,99748.94
2022-09-02T09:41:34.708Z,99741.50
2022-09-02T09:44:08.106Z,99743.50
2022-09-02T09:46:39.917Z,99749.16
2022-09-02T09:49:18.081Z,99738.69
2022-09-02T09:51:59.527Z,99735.31
2022-09-02T09:54:30.270Z,99725.38
2022-09-02T09:57:14.005Z,99730.62
2022-09-02T09:59:57.106Z,99732.34
2022-09-02T10:02:26.802Z,99721.19
2022-09-02T10:05:26.944Z,99725.94
2022-09-02T10:08:00.665Z,99730.78
2022-09-02T10:10:30.948Z,99729.94
2022-09-02T10:13:01.740Z,99730.25
2022-09-02T10:15:42.664Z,99736.34
2022-09-02T10:18:26.393Z,99738.56
2022-09-02T10:21:33.212Z,99732.50
2022-09-02T10:24:27.921Z,99732.03
2022-09-02T10:27:06.868Z,99731.06
2022-09-02T10:30:14.749Z,99731.34
2022-09-02T10:33:04.807Z,99724.50
2022-09-02T10:35:45.876Z,99736.63
2022-09-02T10:38:27.051Z,99739.34
2022-09-02T10:41:20.297Z,99739.66
2022-09-02T10:44:18.854Z,99733.75
2022-09-02T10:47:02.625Z,99735.63
2022-09-02T10:49:59.231Z,99732.59
2022-09-02T10:52:46.211Z,99736.63
2022-09-02T10:55:39.946Z,99724.03
2022-09-02T10:58:12.307Z,99731.63
2022-09-02T11:00:42.378Z,99729.88
2022-09-02T11:03:14.094Z,99728.81
2022-09-02T11:05:48.181Z,99730.38
2022-09-02T11:08:34.762Z,99731.72
2022-09-02T11:11:15.079Z,99722.41
2022-09-02T11:13:58.636Z,99726.72
2022-09-02T11:16:31.107Z,99736.75
2022-09-02T11:19:19.894Z,99723.12
2022-09-02T11:22:00.047Z,99724.84
2022-09-02T11:24:40.358Z,99719.72
2022-09-02T11:27:41.522Z,99718.31
2022-09-02T11:30:26.148Z,99708.50
2022-09-02T11:33:24.091Z,99704.19
2022-09-02T11:35:51.919Z,99706.06
2022-09-02T11:38:45.260Z,99704.13
2022-09-02T11:41:58.468Z,99708.72
2022-09-02T11:44:54.420Z,99706.28
2022-09-02T11:47:49.563Z,99702.19
2022-09-02T11:50:41.740Z,99695.06
2022-09-02T11:53:27.573Z,99690.88
2022-09-02T11:56:07.432Z,99696.84
2022-09-02T11:58:39.244Z,99687.87
2022-09-02T12:01:16.221Z,99687.87
2022-09-02T12:07:10.385Z,99688.78
2022-09-02T12:09:48.590Z,99693.63
2022-09-02T12:12:39.256Z,99681.31
2022-09-02T12:15:07.669Z,99697.66
2022-09-02T12:17:42.162Z,99687.50
2022-09-02T12:20:33.669Z,99685.00
2022-09-02T12:23:02.688Z,99688.78
2022-09-02T12:25:35.805Z,99683.13
2022-09-02T12:28:23.881Z,99680.03
2022-09-02T12:31:15.469Z,99681.00
2022-09-02T12:33:47.840Z,99672.94
2022-09-02T12:36:40.003Z,99672.63
2022-09-02T12:39:23.152Z,99669.25
2022-09-02T12:41:57.930Z,99669.12
2022-09-02T12:44:54.333Z,99670.41
2022-09-02T12:47:46.797Z,99668.16
2022-09-02T12:50:34.653Z,99662.19
2022-09-02T12:53:25.664Z,99662.09
2022-09-02T12:56:04.372Z,99665.34
2022-09-02T12:58:43.450Z,99672.00
2022-09-02T13:01:30.741Z,99664.88
2022-09-02T13:04:03.394Z,99660.84
2022-09-02T13:06:46.861Z,99655.28
2022-09-02T13:09:45.527Z,99654.34
2022-09-02T13:12:51.302Z,99651.41
2022-09-02T13:15:28.139Z,99652.13
2022-09-02T13:18:22.611Z,99653.28
2022-09-02T13:21:27.723Z,99657.91
2022-09-02T13:24:41.689Z,99647.59
2022-09-02T13:27:14.381Z,99645.94
2022-09-02T13:30:10.013Z,99646.16
2022-09-02T13:32:39.212Z,99640.00
2022-09-02T13:35:21.450Z,99642.94
2022-09-02T13:38:00.742Z,99640.59
2022-09-02T13:40:35.281Z,99641.13
2022-09-02T13:43:12.743Z,99642.78
2022-09-02T13:45:40.646Z,99636.06
2022-09-02T13:48:22.333Z,99639.56
2022-09-02T13:50:52.100Z,99633.66
2022-09-02T13:53:49.237Z,99627.34
2022-09-02T13:56:27.374Z,99627.50
2022-09-02T13:58:58.959Z,99631.28
2022-09-02T14:01:41.865Z,99633.75
2022-09-02T14:04:12.175Z,99628.72
2022-09-02T14:06:43.116Z,99628.28
2022-09-02T14:09:23.184Z,99630.03
2022-09-02T14:11:51.214Z,99635.37
2022-09-02T14:14:22.437Z,99626.59
2022-09-02T14:17:29.093Z,99630.31
2022-09-02T14:20:16.726Z,99629.09
2022-09-02T14:22:55.012Z,99631.50
2022-09-02T14:25:27.418Z,99629.47
2022-09-02T14:28:03.141Z,99629.84
2022-09-02T14:30:42.060Z,99628.53
2022-09-02T14:33:42.024Z,99640.38
2022-09-02T14:36:18.743Z,99638.16
2022-09-02T14:38:47.749Z,99635.78
2022-09-02T14:41:24.462Z,99642.63
2022-09-02T14:44:10.692Z,99637.94
2022-09-02T14:46:45.685Z,99643.81
2022-09-02T14:49:37.390Z,99637.50
2022-09-02T14:52:19.584Z,99640.03
2022-09-02T14:54:50.299Z,99635.56
2022-09-02T14:57:35.972Z,99646.81
2022-09-02T15:00:17.298Z,99644.09
2022-09-02T15:02:57.480Z,99645.06
2022-09-02T15:05:29.512Z,99644.22
2022-09-02T15:08:02.949Z,99643.37
2022-09-02T15:10:36.374Z,99643.37
2022-09-02T15:13:05.518Z,99639.81
2022-09-02T15:15:34.498Z,99641.84
2022-09-02T15:18:03.321Z,99636.75
2022-09-02T15:20:34.030Z,99644.31
2022-09-02T15:23:11.562Z,99642.19
2022-09-02T15:25:40.477Z,99640.03
2022-09-02T15:28:09.767Z,99649.16
2022-09-02T15:30:42.156Z,99638.97
2022-09-02T15:33:20.745Z,99635.50
2022-09-02T15:35:55.652Z,99647.59
2022-09-02T15:38:24.364Z,99642.72
2022-09-02T15:40:54.313Z,99646.88
2022-09-02T15:43:23.454Z,99656.31
2022-09-02T15:45:57.988Z,99654.09
2022-09-02T15:48:28.933Z,99656.13
2022-09-02T15:53:38.084Z,99662.88
2022-09-02T15:56:28.841Z,99669.28
2022-09-02T15:59:02.420Z,99664.78
2022-09-02T16:01:37.292Z,99668.84
2022-09-02T16:04:14.537Z,99673.63
2022-09-02T16:06:48.290Z,99679.13
2022-09-02T16:09:23.158Z,99677.34
2022-09-02T16:11:56.168Z,99677.44
2022-09-02T16:14:25.811Z,99679.56
2022-09-02T16:16:55.984Z,99678.97
2022-09-02T16:19:29.800Z,99683.94
2022-09-02T16:22:03.818Z,99681.72
2022-09-02T16:24:33.517Z,99685.06
2022-09-02T16:27:42.568Z,99681.97
2022-09-02T16:30:11.026Z,99680.09
2022-09-02T16:32:38.660Z,99679.66
2022-09-02T16:35:06.822Z,99689.41
2022-09-02T16:37:35.053Z,99694.31
2022-09-02T16:40:12.152Z,99699.94
2022-09-02T16:42:44.410Z,99703.94
2022-09-02T16:45:15.463Z,99703.78
2022-09-02T16:47:44.621Z,99707.12
2022-09-02T16:50:13.318Z,99706.34
2022-09-02T16:52:47.912Z,99701.38
2022-09-02T16:55:22.255Z,99702.50
2022-09-02T16:57:51.295Z,99710.22
2022-09-02T17:00:19.340Z,99715.56
2022-09-02T17:02:53.691Z,99716.47
2022-09-02T17:05:21.844Z,99716.94
2022-09-02T17:07:52.222Z,99712.75
2022-09-02T17:10:22.386Z,99722.53
2022-09-02T17:13:02.815Z,99719.81
2022-09-02T17:15:34.794Z,99722.06
2022-09-02T17:18:03.341Z,99720.72
2022-09-02T17:20:32.318Z,99717.66
2022-09-02T17:23:00.450Z,99717.38
2022-09-02T17:25:31.557Z,99715.81
2022-09-02T17:28:03.700Z,99724.09
2022-09-02T17:30:32.529Z,99719.03
2022-09-02T17:33:06.042Z,99722.00
2022-09-02T17:35:34.875Z,99719.87
2022-09-02T17:38:02.415Z,99714.13
2022-09-02T17:40:48.810Z,99718.53
2022-09-02T17:43:16.802Z,99720.94
2022-09-02T17:45:47.646Z,99722.88
2022-09-02T17:48:39.053Z,99716.31
2022-09-02T17:51:19.749Z,99719.00
2022-09-02T17:53:47.516Z,99724.47
2022-09-02T17:56:42.704Z,99724.22
2022-09-02T17:59:34.959Z,99730.41
2022-09-02T18:02:15.018Z,99726.84
2022-09-02T18:05:01.881Z,99730.59
2022-09-02T18:07:51.046Z,99727.03
2022-09-02T18:10:19.101Z,99728.31
2022-09-02T18:12:47.306Z,99731.25
2022-09-02T18:15:18.558Z,99728.78
2022-09-02T18:17:57.748Z,99730.44
2022-09-02T18:20:42.069Z,99731.28
2022-09-02T18:23:39.658Z,99732.56
2022-09-02T18:26:46.105Z,99734.63
2022-09-02T18:29:27.481Z,99741.31
2022-09-02T18:32:14.423Z,99745.84
2022-09-02T18:34:51.798Z,99748.34
2022-09-02T18:37:45.938Z,99747.09
2022-09-02T18:41:03.862Z,99747.94
2022-09-02T18:43:53.521Z,99748.59
2022-09-02T18:46:29.908Z,99744.63
2022-09-02T18:49:04.585Z,99749.81
2022-09-02T18:51:41.139Z,99749.44
2022-09-02T18:54:19.641Z,99745.91
2022-09-02T18:56:57.606Z,99750.88
2022-09-02T18:59:47.570Z,99750.47
2022-09-02T19:02:31.336Z,99751.91
2022-09-02T19:05:10.292Z,99756.72
2022-09-02T19:08:07.687Z,99747.94
2022-09-02T19:10:36.113Z,99755.00
2022-09-02T19:13:05.966Z,99753.53
2022-09-02T19:15:37.439Z,99758.56
2022-09-02T19:18:09.458Z,99763.75
2022-09-02T19:20:38.575Z,99766.84
2022-09-02T19:23:12.132Z,99758.75
2022-09-02T19:25:47.020Z,99764.56
2022-09-02T19:28:17.438Z,99765.41
2022-09-02T19:30:46.062Z,99765.37
2022-09-02T19:33:14.610Z,99768.62
2022-09-02T19:35:46.972Z,99765.50
2022-09-02T19:38:17.765Z,99766.56
2022-09-02T19:40:49.763Z,99767.84
2022-09-02T19:43:17.647Z,99755.78
2022-09-02T19:45:49.208Z,99765.75
2022-09-02T19:48:18.470Z,99759.31
2022-09-02T19:50:47.990Z,99766.16
2022-09-02T19:53:22.740Z,99764.91
2022-09-02T19:55:51.646Z,99764.34
2022-09-02T19:58:20.329Z,99756.53
2022-09-02T20:00:48.563Z,99761.50
2022-09-02T20:03:16.752Z,99762.75
2022-09-02T20:05:44.451Z,99762.97
2022-09-02T20:08:12.156Z,99757.56
2022-09-02T20:10:40.290Z,99758.19
2022-09-02T20:13:13.851Z,99767.22
2022-09-02T20:15:42.199Z,99764.78
2022-09-02T20:18:15.157Z,99765.41
2022-09-02T20:20:51.821Z,99772.09
2022-09-02T20:23:28.666Z,99772.78
2022-09-02T20:26:25.800Z,99777.28
2022-09-02T20:29:26.546Z,99785.28
2022-09-02T20:32:18.915Z,99787.44
2022-09-02T20:34:49.456Z,99783.09
2022-09-02T20:37:51.981Z,99787.03
2022-09-02T20:40:46.462Z,99781.47
2022-09-02T20:43:27.345Z,99783.12
2022-09-02T20:46:20.446Z,99778.63
2022-09-02T20:49:09.012Z,99784.50
2022-09-02T20:52:04.355Z,99779.84
2022-09-02T20:55:11.415Z,99789.81
2022-09-02T20:58:16.382Z,99786.47
2022-09-02T21:00:55.925Z,99792.84
2022-09-02T21:03:26.134Z,99782.59
2022-09-02T21:05:58.370Z,99782.53
2022-09-02T21:08:35.654Z,99797.63
2022-09-02T21:11:11.413Z,99791.66
2022-09-02T21:13:49.829Z,99783.66
2022-09-02T21:16:34.503Z,99780.94
2022-09-02T21:19:21.512Z,99785.28
2022-09-02T21:21:53.488Z,99775.53
2022-09-02T21:24:39.788Z,99788.25
2022-09-02T21:27:21.417Z,99791.44
2022-09-02T21:30:09.320Z,99783.16
2022-09-02T21:32:44.712Z,99791.91
2022-09-02T21:35:27.723Z,99794.59
2022-09-02T21:38:10.698Z,99800.47
2022-09-02T21:41:29.645Z,99793.81
2022-09-02T21:44:28.782Z,99793.72
2022-09-02T21:47:10.866Z,99789.72
2022-09-02T21:50:22.137Z,99789.59
2022-09-02T21:52:55.172Z,99788.91
2022-09-02T21:55:39.189Z,99793.66
2022-09-02T21:58:51.828Z,99792.16
2022-09-02T22:01:46.552Z,99794.84
2022-09-02T22:04:33.451Z,99794.31
2022-09-02T22:07:25.320Z,99793.75
2022-09-02T22:10:09.119Z,99792.91
2022-09-02T22:12:40.347Z,99786.34
2022-09-02T22:15:19.247Z,99792.78
2022-09-02T22:18:00.194Z,99789.22
2022-09-02T22:20:40.721Z,99797.66
2022-09-02T22:23:15.943Z,99791.69
2022-09-02T22:25:48.936Z,99786.88
2022-09-02T22:28:26.830Z,99786.97
2022-09-02T22:31:00.204Z,99791.06
2022-09-02T22:33:34.115Z,99789.59
2022-09-02T22:36:12.047Z,99796.00
2022-09-02T22:38:49.381Z,99792.53
2022-09-02T22:41:42.100Z,99781.16
2022-09-02T22:44:17.432Z,99783.06
2022-09-02T22:47:12.630Z,99779.22
2022-09-02T22:50:04.446Z,99780.78
2022-09-02T22:52:46.140Z,99785.03
2022-09-02T22:55:38.243Z,99781.47
2022-09-02T22:58:11.527Z,99781.31
2022-09-02T23:01:05.767Z,99779.66
2022-09-02T23:03:43.356Z,99779.19
2022-09-02T23:06:17.446Z,99767.34
2022-09-02T23:08:46.186Z,99769.53
2022-09-02T23:11:41.491Z,99761.66
2022-09-02T23:14:31.564Z,99757.59
2022-09-02T23:17:34.711Z,99761.66
2022-09-02T23:20:20.864Z,99759.72
2022-09-02T23:23:14.156Z,99763.00
2022-09-02T23:25:52.397Z,99754.19
2022-09-02T23:28:31.255Z,99756.47
2022-09-02T23:31:11.402Z,99760.09
2022-09-02T23:34:30.642Z,99755.81
2022-09-02T23:37:05.016Z,99755.16
2022-09-02T23:40:11.622Z,99757.84
2022-09-02T23:42:39.586Z,99759.44
2022-09-02T23:45:28.467Z,99755.53
2022-09-02T23:48:29.661Z,99761.09
2022-09-02T23:51:17.553Z,99754.06
2022-09-02T23:54:20.715Z,99746.66
2022-09-02T23:57:26.970Z,99752.22
